METAR Reports From Nearby Airports

 

KLUD - Decatur, Texas, USA
Distance from Wildwood: OZO 5mi, 8km
Updated: Aug 08, 2022 11:35pm
Helder
Helder
 Wind van ZZO
Wind: ZZO 6 mph , 9 km/h
Temperatuur: 90°F , 32°C
Dauwpunt: 61°F , 16°C
Vochtigheid: 38%
Barometer: 30.02 inHg , 1016.6 hPa
Clouds: Helder
Visibility: 7 miles , 11 km
2022/08/09 04:35 KLUD 090435Z AUTO 15005KT 7SM CLR 32/16 A3002 RMK AO2 T03220157
KXBP - Bridgeport, Texas, USA
Distance from Wildwood: WZW 11mi, 18km
Updated: Aug 08, 2022 11:35pm
Partly Cloudy
Partly Cloudy
 Wind van Z
Wind: Z 6 mph , 9 km/h
Temperatuur: 88°F , 31°C
Dauwpunt: 59°F , 15°C
Vochtigheid: 38%
Barometer: 30.02 inHg , 1016.6 hPa
Clouds: Partly Cloudy
Visibility: 10 miles , 16 km
Cloud details: Partly Cloudy 12000 ft
2022/08/09 04:35 KXBP 090435Z AUTO 17005KT 10SM SCT120 31/15 A3002 RMK AO2 LTG DSNT N T03110150
 
K0F2 - Bowie, Texas, USA
Distance from Wildwood: NNW 24mi, 39km
Updated: Aug 08, 2022 11:35pm
Partly Cloudy
Partly Cloudy
 Wind van ZO
Wind: ZO 3 mph , 6 km/h
Temperatuur: 86°F , 30°C
Heat Index: 88°F , 31°C
Dauwpunt: 64°F , 18°C
Vochtigheid: 49%
Barometer: 30.01 inHg , 1016.3 hPa
Clouds: Partly Cloudy
Visibility: 10 miles , 16 km
Cloud details: Partly Cloudy 11000 ft
2022/08/09 04:35 K0F2 090435Z AUTO 14003KT 10SM SCT110 30/18 A3001 RMK AO2 T02950179
KDTO - Denton, Texas, USA
Distance from Wildwood: O 27mi, 44km
Updated: Aug 08, 2022 10:53pm
Helder
Helder
 Wind van ZO
Wind: ZO 7 mph , 11 km/h
Temperatuur: 91°F , 33°C
Heat Index: 93°F , 34°C
Dauwpunt: 64°F , 18°C
Vochtigheid: 41%
Barometer: 30.00 inHg , 1015.9 hPa
Clouds: Helder
Visibility: 10 miles , 16 km
2022/08/09 03:53 KDTO 090353Z AUTO 14006KT 10SM CLR 33/18 A3000 RMK AO2 SLP146 T03280178
 
KAFW - Ft Worth/Allianc, Texas, USA
Distance from Wildwood: ZO 29mi, 46km
Updated: Aug 08, 2022 10:53pm
Partly Cloudy
Partly Cloudy
 Wind van ZZO
Wind: ZZO 9 mph , 15 km/h
Temperatuur: 93°F , 34°C
Dauwpunt: 63°F , 17°C
Vochtigheid: 36%
Barometer: 29.98 inHg , 1015.2 hPa
Clouds: Partly Cloudy
Visibility: 10 miles , 16 km
Cloud details: Few Clouds 8000 ft
Partly Cloudy 30000 ft
2022/08/09 03:53 KAFW 090353Z 15008KT 10SM FEW080 SCT300 34/17 A2998 RMK AO2 SLP133 T03390167
KFTW - Fort Worth, Texas, USA
Distance from Wildwood: ZZO 34mi, 55km
Updated: Aug 08, 2022 10:53pm
Helder
Helder
 Wind van ZO
Wind: ZO 8 mph , 13 km/h
Temperatuur: 91°F , 33°C
Dauwpunt: 63°F , 17°C
Vochtigheid: 38%
Barometer: 29.99 inHg , 1015.6 hPa
Clouds: Helder
Visibility: 10 miles , 16 km
2022/08/09 03:53 KFTW 090353Z 14007KT 10SM CLR 33/17 A2999 RMK AO2 SLP144 T03330167
 
KNFW - Fort Worth Nas, Texas, USA
Distance from Wildwood: ZZO 36mi, 58km
Updated: Aug 08, 2022 10:52pm
Partly Cloudy
Partly Cloudy
 Wind van ZZO
Wind: ZZO 7 mph , 11 km/h
Temperatuur: 95°F , 35°C
Dauwpunt: 64°F , 18°C
Vochtigheid: 36%
Barometer: 30.00 inHg , 1015.9 hPa
Clouds: Partly Cloudy
Visibility: 10 miles , 16 km
Cloud details: Partly Cloudy 25000 ft
2022/08/09 03:52 KNFW 090352Z 15006KT 10SM SCT250 35/18 A3000 RMK SLP141 T03460177
KGLE - Gainesville, Texas, USA
Distance from Wildwood: NO 38mi, 61km
Updated: Aug 08, 2022 11:35pm
Partly Cloudy
Partly Cloudy
 Wind van ZZO
Wind: ZZO 5 mph , 7 km/h
Temperatuur: 86°F , 30°C
Heat Index: 87°F , 31°C
Dauwpunt: 63°F , 17°C
Vochtigheid: 46%
Barometer: 30.02 inHg , 1016.6 hPa
Clouds: Partly Cloudy
Visibility: 10 miles , 16 km
Cloud details: Partly Cloudy 11000 ft
2022/08/09 04:35 KGLE 090435Z AUTO 16004KT 10SM SCT110 30/17 A3002 RMK AO2 T02950169
 
KMWL - Mineral Wells, Texas, USA
Distance from Wildwood: ZW 41mi, 65km
Updated: Aug 08, 2022 10:53pm
Helder
Helder
 Wind van ZZO
Wind: ZZO 7 mph , 11 km/h
Temperatuur: 90°F , 32°C
Dauwpunt: 59°F , 15°C
Vochtigheid: 36%
Barometer: 30.00 inHg , 1015.9 hPa
Clouds: Helder
Visibility: 10 miles , 16 km
2022/08/09 03:53 KMWL 090353Z AUTO 16006KT 10SM CLR 32/15 A3000 RMK AO2 SLP139 T03220150
KDFW - Dallas/Ft Worth, Texas, USA
Distance from Wildwood: OZO 45mi, 73km
Updated: Aug 08, 2022 10:53pm
Partly Cloudy
Partly Cloudy
 Wind van ZZO
Wind: ZZO 9 mph , 15 km/h
Temperatuur: 93°F , 34°C
Dauwpunt: 61°F , 16°C
Vochtigheid: 34%
Barometer: 29.98 inHg , 1015.2 hPa
Clouds: Partly Cloudy
Visibility: 10 miles , 16 km
Cloud details: Few Clouds 9000 ft
Partly Cloudy 25000 ft
2022/08/09 03:53 KDFW 090353Z 15008KT 10SM FEW090 SCT250 34/16 A2998 RMK AO2 SLP142 OCNL LTGIC DSNT NE CB DSNT NE MOV S T03390161